Terminal Aerodrome Forecast
Issued by NWS

Home | Current Version | Previous Version | Text Only | Print | Product List | Glossary On
Versions: 1 2 3 4 5 6 7 8 9 10 11 12 13 14 15 16 17
534
FTUS43 KGRR 092340
TAFJXN
TAF
KJXN 092340Z 1000/1024 29012G21KT P6SM -SHSN OVC025
     FM101200 31014G21KT P6SM -SHSN BKN040=

USA.gov is the U.S. government's official web portal to all federal, state and local government web resources and services.